Flight Track Log - Related Links

Times and Time Zones

All times are in EDT time to prevent confusion due to time zone crossing. See the N349PS flight status page for this flight to view local times or setup timezone preferences in your user account.

Time Position Orientation Groundspeed Altitude Reporting Facility
EDT Latitude Longitude Course Direction KTS MPH feet Rate Location/Type
Fri 04:45:00 PM 33.8968 -79.4554 278° West  Level FlightAware Approximate
Fri 04:46:00 PM 33.9009 -79.4926 277° West  Level FlightAware Approximate
Fri 04:47:00 PM 33.9045 -79.5299 277° West  Level FlightAware Approximate
Fri 04:48:00 PM 33.9080 -79.5673 277° West  Level FlightAware Approximate
Fri 04:49:00 PM 33.9116 -79.6046 277° West  Level FlightAware Approximate
Fri 04:50:00 PM 33.9151 -79.6419 277° West  Level FlightAware Approximate
Fri 04:51:00 PM 33.9186 -79.6792 277° West  Level FlightAware Approximate
Fri 04:52:00 PM 33.9222 -79.7166 276° West  Level FlightAware Approximate
Fri 04:53:00 PM 33.9257 -79.7539 276° West  Level FlightAware Approximate
Fri 04:54:00 PM 33.9292 -79.7913 276° West  Level FlightAware Approximate
Fri 04:55:00 PM 33.9326 -79.8286 276° West  Level FlightAware Approximate
Fri 04:56:00 PM 33.9361 -79.8660 276° West  Level FlightAware Approximate
Fri 04:57:00 PM 33.9396 -79.9033 276° West  Level FlightAware Approximate
Fri 04:58:00 PM 33.9430 -79.9407 276° West  Level FlightAware Approximate
Fri 04:59:00 PM 33.9464 -79.9780 276° West  Level FlightAware Approximate
Fri 05:00:00 PM 33.9499 -80.0154 276° West  Level FlightAware Approximate
Fri 05:01:00 PM 33.9500 -80.0529 270° West  Level FlightAware Approximate
Fri 05:02:00 PM 33.9539 -80.0901 281° West  Level FlightAware Approximate
Fri 05:03:00 PM 33.9601 -80.1269 281° West  Level FlightAware Approximate
Fri 05:04:00 PM 33.9662 -80.1638 281° West  Level FlightAware Approximate
Fri 05:05:00 PM 33.9724 -80.2006 281° West  Level FlightAware Approximate
Fri 05:06:00 PM 33.9785 -80.2375 281° West  Level FlightAware Approximate
Fri 05:07:00 PM 33.9833 -80.2745 270° West  Level FlightAware Approximate
Fri 05:08:00 PM 33.9833 -80.3121 270° West  Level FlightAware Approximate
Fri 05:09:00 PM 33.9833 -80.3497 270° West  Level FlightAware Approximate
Fri 05:10:00 PM 33.9833 -80.3500 270° West  Level FlightAware Approximate

Login

Don't have an account? Register now (free) for customized features, flight alerts, and more!